This is the latest recevied weather packets stored in our database for station/object TAPIOLA. If no packets are shown the sender has not sent any weather packets the latest 1 day(s).
| Time | Temp. | Humidity | Pressure | Rain* | Wind** | Luminosity | Snow |
|---|---|---|---|---|---|---|---|
| 1777992437 | 11.67° C | 30% | 1005 hPa | 0 mm | 5.36 m/s, 259° | - | - |
| 1777991237 | 11.67° C | 30% | 1005 hPa | 0 mm | 5.81 m/s, 257° | - | - |
| 1777990037 | 11.67° C | 31% | 1004.9 hPa | 0 mm | 5.81 m/s, 273° | - | - |
| 1777988837 | 11.67° C | 30% | 1004.8 hPa | 0 mm | 6.26 m/s, 255° | - | - |
| 1777987636 | 11.11° C | 37% | 1004.8 hPa | 0 mm | 5.81 m/s, 266° | - | - |
| 1777986436 | 11.67° C | 36% | 1004.6 hPa | 0 mm | 6.26 m/s, 274° | - | - |
| 1777985236 | 11.11° C | 40% | 1004.6 hPa | 0 mm | 6.71 m/s, 292° | - | - |
| 1777984036 | 10.56° C | 45% | 1004.4 hPa | 0 mm | 6.71 m/s, 297° | - | - |
| 1777982836 | 12.22° C | 37% | 1004 hPa | 0 mm | 6.26 m/s, 278° | - | - |
| 1777981636 | 11.67° C | 43% | 1003.9 hPa | 0 mm | 7.6 m/s, 283° | - | - |
| 1777980436 | 12.22° C | 37% | 1003.6 hPa | 0 mm | 7.6 m/s, 259° | - | - |
| 1777979236 | 11.67° C | 41% | 1003.5 hPa | 0 mm | 8.49 m/s, 282° | - | - |
| 1777978036 | 11.67° C | 40% | 1003.2 hPa | 0 mm | 8.05 m/s, 289° | - | - |
| 1777976836 | 12.78° C | 40% | 1002.8 hPa | 0 mm | 8.05 m/s, 284° | - | - |
| 1777975636 | 12.78° C | 41% | 1002.4 hPa | 0 mm | 7.6 m/s, 292° | - | - |
| 1777974436 | 11.11° C | 51% | 1002.2 hPa | 0 mm | 6.71 m/s, 279° | - | - |
| 1777973236 | 12.22° C | 52% | 1001.9 hPa | 0 mm | 7.15 m/s, 269° | - | - |
| 1777972036 | 14.44° C | 48% | 1001.3 hPa | 0 mm | 6.26 m/s, 224° | - | - |
| 1777970836 | 13.33° C | 52% | 1001.3 hPa | 0 mm | 8.05 m/s, 221° | - | - |
| 1777969636 | 13.33° C | 53% | 1001.2 hPa | 0 mm | 5.81 m/s, 223° | - | - |
| 1777968436 | 12.22° C | 50% | 1001.4 hPa | 0 mm | 8.05 m/s, 249° | - | - |
| 1777967235 | 12.78° C | 50% | 1001 hPa | 0 mm | 7.15 m/s, 252° | - | - |
| 1777966035 | 12.22° C | 53% | 1000.9 hPa | 0 mm | 5.81 m/s, 229° | - | - |
* Rain latest hour (hover to see other rain measurements)
** Current wind speed in m/s (hover to see current wind gust speed)